createdAt,value
2024-05-09T00:05:03.440Z,6.19
2024-05-09T00:10:34.630Z,6.20
2024-05-09T00:15:59.856Z,6.21
2024-05-09T00:21:25.262Z,6.20
2024-05-09T00:26:48.181Z,6.17
2024-05-09T00:32:10.729Z,6.15
2024-05-09T00:37:33.254Z,6.14
2024-05-09T00:42:59.684Z,6.14
2024-05-09T00:48:23.798Z,6.18
2024-05-09T00:53:46.546Z,6.20
2024-05-09T00:59:10.393Z,6.23
2024-05-09T01:04:33.778Z,6.21
2024-05-09T01:09:36.793Z,6.17
2024-05-09T01:14:39.582Z,6.16
2024-05-09T01:19:42.453Z,6.17
2024-05-09T01:24:45.122Z,6.16
2024-05-09T01:29:47.743Z,6.16
2024-05-09T01:34:50.363Z,6.17
2024-05-09T01:39:52.974Z,6.22
2024-05-09T01:44:55.673Z,6.29
2024-05-09T01:49:58.221Z,6.35
2024-05-09T01:55:04.631Z,6.40
2024-05-09T02:00:10.390Z,6.42
2024-05-09T02:05:13.525Z,6.45
2024-05-09T02:10:20.570Z,6.49
2024-05-09T02:15:28.829Z,6.51
2024-05-09T02:20:36.140Z,6.52
2024-05-09T02:25:40.763Z,6.52
2024-05-09T02:30:43.453Z,6.51
2024-05-09T02:35:46.177Z,6.54
2024-05-09T02:40:48.759Z,6.56
2024-05-09T02:45:51.581Z,6.58
2024-05-09T02:50:54.347Z,6.59
2024-05-09T02:55:57.632Z,6.59
2024-05-09T03:01:01.191Z,6.62
2024-05-09T03:06:04.078Z,6.63
2024-05-09T03:11:07.013Z,6.64
2024-05-09T03:16:09.645Z,6.67
2024-05-09T03:21:12.231Z,6.69
2024-05-09T03:26:17.244Z,6.72
2024-05-09T03:31:20.136Z,6.74
2024-05-09T03:36:22.828Z,6.75
2024-05-09T03:41:25.508Z,6.76
2024-05-09T03:46:28.242Z,6.76
2024-05-09T03:51:30.735Z,6.77
2024-05-09T03:56:33.356Z,6.76
2024-05-09T04:01:36.003Z,6.81
2024-05-09T04:06:38.787Z,6.84
2024-05-09T04:12:01.648Z,6.92
2024-05-09T04:17:24.619Z,7.01
2024-05-09T04:22:47.308Z,7.09
2024-05-09T04:27:50.309Z,7.17
2024-05-09T04:32:52.947Z,7.25
2024-05-09T04:37:55.682Z,7.28
2024-05-09T04:42:58.128Z,7.30
2024-05-09T04:48:01.439Z,7.32
2024-05-09T04:53:05.472Z,7.40
2024-05-09T04:58:09.447Z,7.48
2024-05-09T05:03:14.868Z,7.53
2024-05-09T05:08:20.938Z,7.58
2024-05-09T05:13:24.582Z,7.65
2024-05-09T05:18:28.271Z,7.74
2024-05-09T05:23:31.447Z,7.84
2024-05-09T05:28:34.024Z,7.93
2024-05-09T05:33:56.529Z,8.03
2024-05-09T05:39:19.206Z,8.15
2024-05-09T05:44:41.889Z,8.29
2024-05-09T05:50:07.222Z,8.40
2024-05-09T05:55:34.374Z,8.52
2024-05-09T06:00:39.731Z,8.61
2024-05-09T06:05:46.946Z,8.73
2024-05-09T06:10:50.753Z,9.07
2024-05-09T06:15:56.739Z,9.42
2024-05-09T06:21:00.643Z,9.64
2024-05-09T06:26:04.904Z,9.75
2024-05-09T06:31:07.971Z,9.79
2024-05-09T06:36:34.223Z,9.83
2024-05-09T06:42:02.792Z,9.92
2024-05-09T06:47:08.022Z,10.19
2024-05-09T06:52:18.730Z,10.50
2024-05-09T06:57:30.496Z,10.76
2024-05-09T07:02:38.408Z,11.03
2024-05-09T07:07:45.669Z,11.32
2024-05-09T07:13:08.911Z,11.60
2024-05-09T07:18:36.905Z,11.85
2024-05-09T07:24:00.065Z,11.94
2024-05-09T07:29:02.799Z,12.08
2024-05-09T07:34:05.379Z,12.14
2024-05-09T07:39:09.256Z,12.24
2024-05-09T07:44:12.027Z,12.28
2024-05-09T07:50:55.826Z,12.28
2024-05-09T07:54:39.630Z,12.33
2024-05-09T07:59:42.298Z,12.31
2024-05-09T08:04:45.050Z,12.35
2024-05-09T08:09:47.783Z,12.44
2024-05-09T08:14:53.066Z,12.47
2024-05-09T08:19:56.170Z,12.64
2024-05-09T08:25:02.695Z,12.87
2024-05-09T08:30:18.585Z,12.97
2024-05-09T08:35:25.138Z,13.07
2024-05-09T08:40:48.341Z,13.06
2024-05-09T08:45:51.762Z,13.14
2024-05-09T08:51:14.688Z,13.47
2024-05-09T08:56:40.362Z,13.86
2024-05-09T09:02:04.851Z,14.18
2024-05-09T09:07:27.779Z,14.45
2024-05-09T09:12:30.633Z,14.55
2024-05-09T09:17:33.359Z,14.76
2024-05-09T09:22:36.150Z,14.99
2024-05-09T09:27:39.350Z,15.19
2024-05-09T09:32:42.005Z,15.26
2024-05-09T09:37:46.378Z,15.42
2024-05-09T09:42:50.162Z,15.54
2024-05-09T09:47:56.102Z,15.68
2024-05-09T09:53:00.653Z,15.86
2024-05-09T09:58:24.168Z,16.12
2024-05-09T10:03:47.237Z,16.30
2024-05-09T10:09:11.028Z,16.38
2024-05-09T10:14:13.854Z,16.60
2024-05-09T10:19:27.089Z,16.76
2024-05-09T10:24:49.101Z,16.93
2024-05-09T10:30:17.900Z,17.10
2024-05-09T10:35:51.836Z,17.26
2024-05-09T10:40:59.772Z,17.42
2024-05-09T10:46:04.730Z,17.51
2024-05-09T10:51:08.800Z,17.81
2024-05-09T10:56:13.393Z,18.02
2024-05-09T11:01:16.581Z,18.10
2024-05-09T11:06:19.273Z,18.00
2024-05-09T11:11:22.172Z,18.17
2024-05-09T11:16:44.834Z,18.40
2024-05-09T11:22:13.403Z,18.45
2024-05-09T11:27:16.317Z,18.45
2024-05-09T11:32:48.793Z,18.59
2024-05-09T11:37:51.626Z,18.58
2024-05-09T11:42:54.332Z,18.54
2024-05-09T11:47:57.463Z,18.46
2024-05-09T11:53:00.241Z,18.41
2024-05-09T11:58:23.456Z,18.38
2024-05-09T12:03:26.431Z,18.19
2024-05-09T12:08:29.394Z,17.81
2024-05-09T12:13:32.168Z,17.72
2024-05-09T12:18:34.926Z,17.70
2024-05-09T12:23:57.540Z,17.92
2024-05-09T12:29:20.478Z,18.07
2024-05-09T12:34:43.262Z,18.35
2024-05-09T12:39:46.272Z,18.50
2024-05-09T12:44:48.958Z,18.62
2024-05-09T12:49:51.718Z,18.61
2024-05-09T12:55:14.560Z,18.69
2024-05-09T13:00:37.191Z,18.60
2024-05-09T13:05:44.649Z,18.15
2024-05-09T13:10:48.277Z,17.67
2024-05-09T13:16:11.012Z,17.32
2024-05-09T13:21:33.718Z,16.92
2024-05-09T13:26:36.388Z,16.57
2024-05-09T13:31:39.330Z,16.71
2024-05-09T13:36:42.000Z,16.72
2024-05-09T13:42:04.725Z,16.73
2024-05-09T13:47:07.474Z,16.79
2024-05-09T13:52:30.237Z,16.87
2024-05-09T13:57:52.946Z,16.87
2024-05-09T14:02:55.788Z,16.66
2024-05-09T14:07:58.642Z,16.38
2024-05-09T14:13:01.838Z,16.18
2024-05-09T14:47:51.897Z,15.71
2024-05-09T14:52:55.092Z,15.71
2024-05-09T14:57:57.900Z,15.67
2024-05-09T15:03:00.852Z,15.54
2024-05-09T15:08:06.975Z,15.40
2024-05-09T15:13:11.405Z,15.29
2024-05-09T15:18:16.382Z,15.21
2024-05-09T15:23:19.914Z,15.27
2024-05-09T15:28:22.618Z,15.28
2024-05-09T15:33:25.323Z,15.25
2024-05-09T15:38:27.920Z,15.21
2024-05-09T15:43:30.640Z,15.31
2024-05-09T15:48:34.081Z,15.35
2024-05-09T15:53:37.147Z,15.37
2024-05-09T15:58:40.333Z,15.41
2024-05-09T16:03:43.030Z,15.43
2024-05-09T16:08:46.172Z,15.38
2024-05-09T16:13:48.760Z,15.46
2024-05-09T16:18:51.558Z,15.71
2024-05-09T16:23:54.562Z,15.84
2024-05-09T16:28:57.339Z,15.87
2024-05-09T16:34:00.186Z,15.83
2024-05-09T16:39:03.630Z,15.81
2024-05-09T16:44:06.397Z,15.77
2024-05-09T16:49:10.692Z,15.73
2024-05-09T16:54:13.835Z,15.69
2024-05-09T16:59:16.937Z,15.64
2024-05-09T17:04:21.684Z,15.54
2024-05-09T17:09:24.447Z,15.38
2024-05-09T17:14:27.295Z,15.23
2024-05-09T17:19:30.029Z,15.11
2024-05-09T17:24:32.764Z,14.98
2024-05-09T17:29:37.006Z,14.88
2024-05-09T17:34:39.951Z,14.78
2024-05-09T17:39:42.646Z,14.66
2024-05-09T17:44:45.322Z,14.53
2024-05-09T17:49:47.927Z,14.37
2024-05-09T17:54:50.712Z,14.17
2024-05-09T17:59:53.913Z,14.00
2024-05-09T18:04:56.600Z,13.85
2024-05-09T18:09:59.849Z,13.71
2024-05-09T18:15:02.974Z,13.56
2024-05-09T18:20:08.972Z,13.42
2024-05-09T18:25:11.838Z,13.27
2024-05-09T18:30:24.090Z,13.17
2024-05-09T18:35:34.162Z,12.98
2024-05-09T18:40:38.548Z,12.82
2024-05-09T18:45:45.685Z,12.68
2024-05-09T18:50:49.009Z,12.54
2024-05-09T18:55:51.890Z,12.44
2024-05-09T19:00:56.534Z,12.33
2024-05-09T19:06:00.824Z,12.26
2024-05-09T19:11:03.798Z,12.18
2024-05-09T19:16:07.054Z,12.09
2024-05-09T19:21:09.716Z,12.02
2024-05-09T19:26:12.723Z,11.96
2024-05-09T19:31:15.525Z,11.90
2024-05-09T19:36:19.366Z,11.85
2024-05-09T19:41:22.623Z,11.78
2024-05-09T19:46:25.428Z,11.68
2024-05-09T19:51:27.986Z,11.60
2024-05-09T19:56:31.012Z,11.49
2024-05-09T20:01:33.977Z,11.37
2024-05-09T20:06:37.269Z,11.32
2024-05-09T20:11:39.851Z,11.25
2024-05-09T20:16:44.558Z,11.20
2024-05-09T20:21:47.298Z,11.11
2024-05-09T20:26:50.006Z,11.05
2024-05-09T20:31:52.848Z,11.04
2024-05-09T20:36:55.469Z,10.98
2024-05-09T20:41:58.744Z,10.93
2024-05-09T20:47:01.847Z,10.90
2024-05-09T20:52:04.847Z,10.87
2024-05-09T20:57:07.795Z,10.88
2024-05-09T21:02:10.788Z,10.87
2024-05-09T21:07:13.695Z,10.86
2024-05-09T21:12:18.621Z,10.88
2024-05-09T21:17:21.423Z,10.92
2024-05-09T21:22:24.240Z,10.96
2024-05-09T21:27:26.878Z,11.07
2024-05-09T21:32:29.770Z,11.14
2024-05-09T21:37:32.326Z,11.18
2024-05-09T21:42:35.299Z,11.23
2024-05-09T21:47:38.329Z,11.27
2024-05-09T21:52:41.033Z,11.28
2024-05-09T21:57:43.995Z,11.31
2024-05-09T22:02:46.690Z,11.33
2024-05-09T22:07:49.363Z,11.32
2024-05-09T22:12:52.073Z,11.32
2024-05-09T22:17:56.619Z,11.29
2024-05-09T22:23:00.231Z,11.30
2024-05-09T22:28:03.462Z,11.30
2024-05-09T22:33:08.453Z,11.29
2024-05-09T22:38:12.299Z,11.31
2024-05-09T22:43:23.460Z,11.33
2024-05-09T22:48:28.128Z,11.34
2024-05-09T22:53:30.814Z,11.40
2024-05-09T22:58:34.623Z,11.41
2024-05-09T23:03:38.973Z,11.43
2024-05-09T23:08:41.754Z,11.43
2024-05-09T23:13:44.417Z,11.46
2024-05-09T23:18:47.897Z,11.47
2024-05-09T23:23:50.871Z,11.46
2024-05-09T23:28:53.449Z,11.49
2024-05-09T23:33:56.262Z,11.53
2024-05-09T23:39:00.052Z,11.53
2024-05-09T23:44:02.712Z,11.54
2024-05-09T23:49:05.685Z,11.54
2024-05-09T23:54:08.899Z,11.53
2024-05-09T23:59:12.101Z,11.54
